Flight Track Log - Related Links

Times and Time Zones

All times are in EDT time to prevent confusion due to time zone crossing. See the SWA482 flight status page for this flight to view local times or setup timezone preferences in your user account.

Time Position Orientation Groundspeed Altitude Reporting Facility
EDT Latitude Longitude Course Direction KTS MPH feet Rate Location/Type
Tue 10:03:45 PM 33.4333 -112.0333 257° West 139 160 2,000  Level Phoenix TRACON
Tue 10:04:05 PM 33.4325 -112.0378 257° West 148 170 2,600 1,630 Climbing Albuquerque Center
Tue 10:05:06 PM 33.4336 -112.0983 271° West 172 198 4,200 2,557 Climbing Albuquerque Center
Tue 10:06:07 PM 33.4475 -112.1850 281° West 255 293 7,800 3,268 Climbing Albuquerque Center
Tue 10:07:09 PM 33.5239 -112.1786 North 320 368 10,900 3,073 Climbing Albuquerque Center
Tue 10:08:10 PM 33.5489 -112.0625 75° East 363 418 14,100 3,049 Climbing Albuquerque Center
Tue 10:09:11 PM 33.5719 -111.9367 78° East 384 442 17,100 3,122 Climbing Albuquerque Center
Tue 10:10:13 PM 33.5997 -111.7750 78° East 410 472 20,500 2,732 Climbing Albuquerque Center
Tue 10:11:14 PM 33.6258 -111.6314 78° East 435 501 22,700 2,164 Climbing Albuquerque Center
Tue 10:12:15 PM 33.6522 -111.4794 78° East 459 528 24,900 1,967 Climbing Albuquerque Center
Tue 10:13:16 PM 33.6797 -111.3200 78° East 483 556 26,700 1,854 Climbing Albuquerque Center
Tue 10:14:18 PM 33.7281 -111.1611 70° East 505 581 28,700 1,756 Climbing Albuquerque Center
Tue 10:15:19 PM 33.7836 -111.0019 67° East 517 595 30,300 1,623 Climbing Albuquerque Center
Tue 10:16:20 PM 33.8406 -110.8378 67° East 530 610 32,000 2,164 Climbing Albuquerque Center
Tue 10:17:21 PM 33.9114 -110.6417 66° East 533 613 34,700 1,463 Climbing Albuquerque Center
Tue 10:18:23 PM 33.9667 -110.4825 67° East 524 603 35,000 146 Climbing Albuquerque Center
Tue 10:19:24 PM 34.0219 -110.3258 67° East 520 598 35,000  Level Albuquerque Center
Tue 10:20:25 PM 34.0764 -110.1675 67° East 518 596 35,000  Level Albuquerque Center
Tue 10:21:26 PM 34.1328 -110.0036 67° East 513 590 35,000  Level Albuquerque Center
Tue 10:22:27 PM 34.1933 -109.8256 68° East 513 590 35,000  Level Albuquerque Center
Tue 10:23:29 PM 34.2450 -109.6753 67° East 511 588 35,000  Level Albuquerque Center
Tue 10:24:30 PM 34.2972 -109.5242 67° East 509 586 35,000  Level Albuquerque Center
Tue 10:25:31 PM 34.3569 -109.3472 68° East 509 586 35,000  Level Albuquerque Center
Tue 10:26:32 PM 34.4075 -109.1944 68° East 510 587 35,000  Level Albuquerque Center
Tue 10:27:33 PM 34.4394 -109.0350 76° East 511 588 35,000  Level Albuquerque Center
Tue 10:28:35 PM 34.4631 -108.8464 81° East 509 586 35,000  Level Albuquerque Center
Tue 10:29:36 PM 34.4836 -108.6853 81° East 507 583 35,000 -984 Level Albuquerque Center
Tue 10:30:37 PM 34.5075 -108.4978 81° East 507 583 33,000 -2,164 Descending Albuquerque Center
Tue 10:31:38 PM 34.5306 -108.3572 79° East 508 585 30,600 -2,361 Descending Albuquerque Center
Tue 10:32:39 PM 34.5592 -108.1919 78° East 504 580 28,200 -2,508 Descending Albuquerque Center
Tue 10:33:40 PM 34.5903 -108.0025 79° East 484 557 25,500 -2,459 Descending Albuquerque Center
Tue 10:34:41 PM 34.6156 -107.8506 79° East 467 537 23,200 -1,805 Descending Albuquerque Center
Tue 10:35:43 PM 34.6606 -107.7169 68° East 439 505 21,800 -1,756 Descending Albuquerque Center
Tue 10:36:44 PM 34.7153 -107.5944 61° Northeast 420 483 19,600 -2,118 Descending Albuquerque Center
Tue 10:37:25 PM 34.7506 -107.5069 64° Northeast 401 461 18,200 -1,869 Descending Albuquerque Center
Tue 10:37:45 PM 34.7658 -107.4750 60° Northeast 404 465 17,700 -1,959 Descending Albuquerque Center
Tue 10:38:14 PM 34.7922 -107.4114 63° Northeast 380 437 16,600 -1,869 Descending Albuquerque Center
Tue 10:38:46 PM 34.8142 -107.3628 61° Northeast 385 443 15,800 -1,400 Descending Albuquerque Center
Tue 10:39:14 PM 34.8392 -107.2992 64° Northeast 361 415 15,200 -1,082 Descending Albuquerque Center
Tue 10:39:47 PM 34.8589 -107.2561 61° Northeast 363 418 14,700 -1,377 Descending Albuquerque Center
Tue 10:40:15 PM 34.8817 -107.1981 64° Northeast 335 386 13,800 -1,475 Descending Albuquerque Center
Tue 10:40:48 PM 34.8958 -107.1544 68° East 341 392 13,200 -1,574 Descending Albuquerque Center
Tue 10:41:16 PM 34.8953 -107.0911 91° East 326 375 12,200 -1,770 Descending Albuquerque Center
Tue 10:41:49 PM 34.9006 -107.0442 82° East 333 383 11,400 -1,300 Descending Albuquerque Center
Tue 10:42:16 PM 34.9111 -106.9836 78° East 310 357 10,900 -774 Descending Albuquerque Center
Tue 10:42:51 PM 34.9156 -106.9444 82° East 318 366 10,600 -689 Descending Albuquerque Center
Tue 10:43:17 PM 34.9231 -106.8925 80° East 268 308 10,200 -1,279 Descending Albuquerque Center
Tue 10:43:52 PM 34.9294 -106.8411 81° East 277 319 9,300 -1,400 Descending Albuquerque Center
Tue 10:44:17 PM 34.9344 -106.8094 79° East 241 277 8,800 -1,180 Descending Albuquerque Center
Tue 10:44:53 PM 34.9414 -106.7636 80° East 253 291 8,100 -1,279 Descending Albuquerque Center
Tue 10:45:18 PM 34.9464 -106.7314 79° East 215 247 7,500 -1,180 Descending Albuquerque Center
Tue 10:45:54 PM 34.9619 -106.7003 59° Northeast 231 266 6,900 -1,082 Descending Albuquerque Center
Tue 10:46:19 PM 34.9803 -106.6811 41° Northeast 186 214 6,400 -885 Descending Albuquerque Center
Tue 10:46:55 PM 34.9978 -106.6592 46° Northeast 196 226 6,000 -800 Descending Albuquerque Center
Tue 10:47:19 PM 35.0139 -106.6414 42° Northeast 152 175 5,600 -590 Descending Albuquerque Center
Tue 10:47:56 PM 35.0311 -106.6189 47° Northeast 177 204 5,400 -324 Descending Albuquerque Center
Tue 10:49:00 PM 35.0333 -106.6000 90° East  Level FlightAware Approximate

Login

Don't have an account? Register now (free) for customized features, flight alerts, and more!